首页
METAR-TAF:

METAR-TAF

机场 :

Benson, 英格兰

纬度: 51-37N, 经度: 001-05W, 海拔: 63米

当前天气观测

该预报发布于18分钟前的21:20 UTC
风速4节,风向西转西南
温度 16°C
湿度 77%
气压 1009 hPa
能见度10公里或以上
1500米以下无云,无积雨云

METAR: EGUB 192120Z 24004KT CAVOK 16/12 Q1009 NOSIG RMK BLU BLU

时间: 22:38 (21:38 UTC)

预报

该预报发布于2小时和20分钟前的19:18 UTC
预报有效从19日的 21点(UTC)到 20日的 15点(UTC)
风速5节,风向西
能见度10公里或以上
多云层高于4500英尺
几率 40% :
短暂存在
从 20日的 01点(UTC)到 20日的 06点(UTC)
散云层高于700英尺
短暂存在
从 20日的 06点(UTC)到 20日的 08点(UTC)
散云层高于1500英尺
几率 30% :
短暂存在
从 20日的 10点(UTC)到 20日的 15点(UTC)
能見度: 7000
阵雨

TAF: EGUB 191918Z 1921/2015 27005KT 9999 BKN045 PROB40 TEMPO 2001/2006 SCT007 TEMPO 2006/2008 SCT015 PROB30 TEMPO 2010/2015 7000 SHRA

超过4000个机场的气象观测和天气预报(METAR&TAF报告)。

可查询的气象台以黄色和红色小点在地图上表示。

将鼠标移到小点上方,可查看气象台名称。

然后点击查看天气观测和预报。

如需切换地图:点击带黑十字的绿色按钮放大地图;点击带横线的绿色按钮缩小地图;或者点击绿色箭头查看邻近地区的地图。


METAR-TAF: